Time;durP1;ratioP1;P1;durP2;ratioP2;P2;SDS_P1;SDS_P2;PMS_P1;PMS_P2;Temp;Humidity;BMP_temperature;BMP_pressure;BME280_temperature;BME280_humidity;BME280_pressure;Samples;Min_cycle;Max_cycle;Signal;HPM_P1;HPM_P2
2024/03/19 00:00:59;;;;;;;;;16.00;13.00;;;;;3.29;67.81;99688.84;6275955;20;2785857;-46
2024/03/19 00:03:25;;;;;;;;;14.00;9.00;;;;;3.41;68.27;99690.25;6270101;20;2766079;-52
2024/03/19 00:05:54;;;;;;;;;12.80;10.80;;;;;3.23;68.31;99681.97;6299442;20;2793028;-48
2024/03/19 00:08:21;;;;;;;;;16.50;14.00;;;;;3.22;68.30;99680.25;6271376;20;2802376;-48
2024/03/19 00:10:52;;;;;;;;;18.57;12.43;;;;;3.23;67.87;99681.97;6311416;20;1824987;-47
2024/03/19 00:13:19;;;;;;;;;10.00;8.33;;;;;3.28;68.34;99685.34;6330196;20;1813569;-48
2024/03/19 00:15:46;;;;;;;;;8.00;7.00;;;;;3.14;69.05;99692.88;6301935;20;2749101;-52
2024/03/19 00:18:12;;;;;;;;;14.00;10.00;;;;;3.11;68.66;99682.38;6303721;20;2777396;-52
2024/03/19 00:20:41;;;;;;;;;15.40;14.40;;;;;3.10;68.87;99687.72;6295206;20;2807748;-47
2024/03/19 00:23:08;;;;;;;;;10.75;9.00;;;;;3.17;68.81;99690.13;6292640;20;1812878;-47
2024/03/19 00:25:37;;;;;;;;;17.60;10.60;;;;;3.02;69.57;99687.94;6326180;20;2803413;-47
2024/03/19 00:28:04;;;;;;;;;15.00;11.00;;;;;3.08;69.19;99693.03;6272662;20;2776376;-49
2024/03/19 00:30:30;;;;;;;;;17.00;11.00;;;;;3.07;69.07;99691.31;6269379;20;2800270;-48
2024/03/19 00:32:59;;;;;;;;;19.40;11.80;;;;;3.07;69.82;99692.19;6293343;20;2796243;-48
2024/03/19 00:35:25;;;;;;;;;15.00;12.00;;;;;3.04;69.82;99699.38;6268822;20;2791983;-49
2024/03/19 00:37:52;;;;;;;;;15.00;13.00;;;;;3.05;70.22;99693.16;6269702;20;2792027;-49
2024/03/19 00:40:21;;;;;;;;;11.60;10.60;;;;;2.93;71.02;99693.53;6297565;20;2785835;-46
2024/03/19 00:42:47;;;;;;;;;13.50;13.00;;;;;2.94;71.24;99688.16;6271775;20;2786884;-46
2024/03/19 00:45:14;;;;;;;;;14.50;11.00;;;;;3.22;70.68;99697.94;6270687;20;2787886;-47
2024/03/19 00:47:41;;;;;;;;;15.50;10.00;;;;;2.97;71.13;99689.88;6271154;20;2785870;-48
2024/03/19 00:50:08;;;;;;;;;13.50;12.00;;;;;3.16;70.59;99693.72;6272379;20;2789874;-46
2024/03/19 00:52:35;;;;;;;;;15.50;12.00;;;;;2.95;71.52;99687.28;6271468;20;2795065;-45
2024/03/19 00:55:04;;;;;;;;;10.00;10.00;;;;;2.89;71.80;99681.28;6270485;20;2764013;-46
2024/03/19 00:57:32;;;;;;;;;17.00;12.00;;;;;2.96;72.26;99694.31;6301843;20;2791946;-46
2024/03/19 00:59:58;;;;;;;;;10.00;9.00;;;;;2.96;72.36;99688.13;6270406;20;2758640;-48
2024/03/19 01:02:26;;;;;;;;;9.50;9.50;;;;;3.03;72.36;99684.41;6269471;20;2765208;-47
2024/03/19 01:04:53;;;;;;;;;18.67;13.00;;;;;2.97;72.66;99695.16;6300323;20;2801408;-46
2024/03/19 01:07:21;;;;;;;;;17.00;13.00;;;;;2.82;72.85;99686.78;6300682;20;2804536;-46
2024/03/19 01:09:48;;;;;;;;;16.33;14.00;;;;;2.84;72.62;99690.25;6272358;20;2805634;-47
2024/03/19 01:12:18;;;;;;;;;15.43;11.14;;;;;3.02;72.80;99687.94;6347038;20;1817011;-48
2024/03/19 01:14:45;;;;;;;;;14.00;13.00;;;;;3.05;72.10;99679.88;6303967;20;2806638;-46
2024/03/19 01:17:12;;;;;;;;;18.00;14.00;;;;;2.89;72.87;99681.28;6276702;20;2800274;-46
2024/03/19 01:19:39;;;;;;;;;14.00;12.00;;;;;2.89;72.49;99691.88;6277779;20;2790950;-53
2024/03/19 01:22:06;;;;;;;;;17.00;11.00;;;;;2.88;73.27;99685.72;6306426;20;2798309;-47
2024/03/19 01:24:33;;;;;;;;;14.00;11.00;;;;;2.94;73.29;99685.53;6277236;20;2795069;-47
2024/03/19 01:26:59;;;;;;;;;11.00;10.00;;;;;2.83;73.42;99688.50;6275585;20;2774388;-48
2024/03/19 01:29:27;;;;;;;;;14.50;11.00;;;;;2.80;72.95;99691.25;6276122;20;2794070;-46
2024/03/19 01:31:53;;;;;;;;;16.00;12.00;;;;;2.78;72.91;99684.25;6276860;20;2804444;-49
2024/03/19 01:34:20;;;;;;;;;16.00;10.00;;;;;2.74;73.96;99682.59;6275927;20;2789882;-47
2024/03/19 01:36:46;;;;;;;;;17.00;16.00;;;;;2.67;73.64;99687.22;6274854;20;2805492;-52
2024/03/19 01:39:14;;;;;;;;;13.25;8.25;;;;;2.86;73.49;99688.41;6297041;20;1812865;-48
2024/03/19 01:41:41;;;;;;;;;12.00;12.00;;;;;2.73;73.40;99692.34;6306768;20;2789968;-48
2024/03/19 01:44:16;;;;;;;;;12.50;9.00;;;;;2.73;73.87;99686.16;6273446;20;2769077;-46
2024/03/19 01:46:44;;;;;;;;;14.00;9.60;;;;;2.67;73.88;99687.22;6301211;20;2783666;-48
2024/03/19 01:49:12;;;;;;;;;18.00;12.50;;;;;2.88;73.88;99691.03;6271229;20;2798175;-46
2024/03/19 01:51:41;;;;;;;;;14.00;13.50;;;;;2.88;73.47;99685.72;6274358;20;2788844;-46
2024/03/19 01:54:09;;;;;;;;;12.00;9.50;;;;;2.81;73.75;99685.03;6273620;20;2767995;-47
2024/03/19 01:56:37;;;;;;;;;11.00;10.00;;;;;2.74;74.25;99688.78;6273431;20;2776345;-47
2024/03/19 01:59:04;;;;;;;;;10.25;9.25;;;;;2.64;74.39;99674.94;6291632;20;1811600;-46
2024/03/19 02:01:31;;;;;;;;;14.50;12.00;;;;;2.59;74.68;99678.63;6299566;20;2777373;-49
2024/03/19 02:03:58;;;;;;;;;14.50;10.50;;;;;3.10;74.18;99683.25;6269852;20;2786808;-45
2024/03/19 02:06:28;;;;;;;;;12.43;12.14;;;;;2.66;75.50;99680.19;6314179;20;1821192;-48
2024/03/19 02:09:16;;;;;;;;;14.50;10.00;;;;;2.68;74.75;99683.66;6304006;20;2778522;-46
2024/03/19 02:11:43;;;;;;;;;18.00;14.00;;;;;2.70;75.16;99689.78;6272944;20;2806651;-46
2024/03/19 02:14:12;;;;;;;;;17.40;13.20;;;;;2.48;75.74;99678.09;6299089;20;2796142;-47
2024/03/19 02:16:38;;;;;;;;;16.00;12.00;;;;;2.34;76.26;99679.34;6273681;20;2798243;-46
2024/03/19 02:19:07;;;;;;;;;61.67;43.00;;;;;2.54;76.54;99685.84;6272753;20;2858728;-47
2024/03/19 02:21:35;;;;;;;;;19.40;13.20;;;;;2.91;75.49;99682.09;6328323;20;2794041;-45
2024/03/19 02:24:03;;;;;;;;;16.00;13.00;;;;;2.76;74.91;99681.63;6272960;20;2797175;-49
2024/03/19 02:26:31;;;;;;;;;13.00;12.00;;;;;2.63;75.40;99678.50;6272117;20;2794035;-48
2024/03/19 02:29:02;;;;;;;;;15.80;10.20;;;;;3.41;72.56;99684.94;6294255;20;2794049;-47
2024/03/19 02:31:29;;;;;;;;;15.00;11.00;;;;;2.73;77.29;99681.72;6272893;20;2798244;-48
2024/03/19 02:33:59;;;;;;;;;15.00;14.14;;;;;2.57;76.21;99685.75;6313014;20;1821182;-48
2024/03/19 02:36:26;;;;;;;;;11.00;11.00;;;;;2.40;76.67;99683.59;6304920;20;2783734;-45
2024/03/19 02:38:53;;;;;;;;;11.00;11.00;;;;;2.53;77.15;99678.81;6275496;20;2777376;-46
2024/03/19 02:41:20;;;;;;;;;12.00;12.00;;;;;2.53;77.14;99679.69;6273003;20;2773227;-48
2024/03/19 02:43:46;;;;;;;;;15.50;12.00;;;;;2.46;77.20;99687.84;6274958;20;2796141;-46
2024/03/19 02:46:13;;;;;;;;;12.50;12.50;;;;;2.43;77.06;99688.81;6273967;20;2779499;-50
2024/03/19 02:48:41;;;;;;;;;15.60;12.80;;;;;2.24;78.39;99693.75;6295680;20;2811843;-46
2024/03/19 02:51:08;;;;;;;;;23.50;14.00;;;;;2.30;78.24;99693.56;6273395;20;2815029;-49
2024/03/19 02:53:35;;;;;;;;;15.00;13.00;;;;;2.35;77.86;99699.63;6275232;20;2800265;-47
2024/03/19 02:56:04;;;;;;;;;14.60;12.80;;;;;2.41;76.99;99699.44;6297577;20;2795092;-49
2024/03/19 02:58:30;;;;;;;;;12.50;10.00;;;;;2.41;78.27;99702.09;6274963;20;2786869;-52
2024/03/19 03:00:57;;;;;;;;;15.00;10.00;;;;;2.23;78.66;99692.00;6269933;20;2775377;-47
2024/03/19 03:03:26;;;;;;;;;12.50;10.67;;;;;2.22;78.38;99700.88;6314232;20;1818016;-48
2024/03/19 03:05:55;;;;;;;;;13.25;9.00;;;;;2.36;78.17;99704.00;6293863;20;1825400;-46
2024/03/19 03:08:21;;;;;;;;;21.00;12.00;;;;;2.59;77.68;99699.84;6304850;20;2806540;-48
2024/03/19 03:10:48;;;;;;;;;15.00;15.00;;;;;2.45;77.90;99696.69;6275006;20;2804470;-47
2024/03/19 03:13:17;;;;;;;;;13.20;11.60;;;;;2.44;77.47;99708.22;6300291;20;2791968;-47
2024/03/19 03:15:44;;;;;;;;;16.50;12.00;;;;;2.37;78.07;99700.44;6270834;20;2789996;-44
2024/03/19 03:18:11;;;;;;;;;13.00;12.00;;;;;2.30;77.90;99698.88;6272290;20;2777566;-48
2024/03/19 03:20:38;;;;;;;;;13.00;13.00;;;;;2.28;78.59;99705.97;6272006;20;2792056;-46
2024/03/19 03:23:05;;;;;;;;;14.00;11.00;;;;;2.34;78.55;99704.94;6271661;20;2789889;-47
2024/03/19 03:25:32;;;;;;;;;16.00;9.50;;;;;2.30;78.77;99704.16;6273284;20;2773260;-46
2024/03/19 03:27:59;;;;;;;;;13.00;12.00;;;;;2.38;78.37;99704.81;6271782;20;2770104;-46
2024/03/19 03:30:29;;;;;;;;;9.33;9.00;;;;;2.17;78.79;99708.94;6273314;20;3468027;-46
2024/03/19 03:32:58;;;;;;;;;15.40;13.80;;;;;2.30;79.02;99709.47;6315110;20;2820248;-47
2024/03/19 03:35:27;;;;;;;;;15.00;10.00;;;;;2.30;78.92;99709.47;6309895;20;1819064;-47
2024/03/19 03:37:54;;;;;;;;;13.00;9.00;;;;;2.36;78.82;99709.28;6274050;20;2769094;-45
2024/03/19 03:40:24;;;;;;;;;13.17;9.50;;;;;2.52;78.34;99708.88;6313766;20;1805610;-46
2024/03/19 03:42:51;;;;;;;;;13.50;12.50;;;;;2.62;77.77;99718.28;6271525;20;2785712;-48
2024/03/19 03:45:21;;;;;;;;;17.00;11.75;;;;;2.67;78.26;99713.72;6287500;20;1835763;-47
2024/03/19 03:47:50;;;;;;;;;17.00;11.33;;;;;3.14;77.59;99719.41;6343068;20;1810781;-48
2024/03/19 03:50:17;;;;;;;;;16.00;13.50;;;;;2.61;78.50;99727.16;6272397;20;2796291;-47
2024/03/19 03:52:43;;;;;;;;;20.00;16.00;;;;;2.56;80.80;99726.44;6274363;20;2821135;-48
2024/03/19 03:55:14;;;;;;;;;17.57;13.86;;;;;2.67;79.62;99734.94;6311035;20;1809778;-46
2024/03/19 03:57:40;;;;;;;;;15.50;10.00;;;;;2.38;79.11;99739.25;6303274;20;2786919;-48
2024/03/19 04:00:11;;;;;;;;;14.50;10.50;;;;;2.38;79.00;99735.75;6273090;20;2776485;-46
2024/03/19 04:02:46;;;;;;;;;13.00;12.00;;;;;2.81;78.74;99737.19;6273188;20;2776210;-49
2024/03/19 04:05:13;;;;;;;;;17.00;12.00;;;;;3.18;77.47;99741.38;6268192;20;2793003;-48
2024/03/19 04:07:43;;;;;;;;;19.50;13.50;;;;;3.21;75.47;99741.28;6272441;20;2798285;-48
2024/03/19 04:10:14;;;;;;;;;13.50;10.00;;;;;3.30;74.77;99741.88;6271149;20;2773294;-47
2024/03/19 04:12:44;;;;;;;;;15.00;9.80;;;;;3.53;74.68;99748.28;6295197;20;2775417;-45
2024/03/19 04:15:12;;;;;;;;;18.00;12.00;;;;;3.46;73.87;99747.59;6269512;20;2800540;-50
2024/03/19 04:17:40;;;;;;;;;18.00;13.00;;;;;3.30;75.09;99749.84;6272838;20;2797601;-47
2024/03/19 04:20:11;;;;;;;;;12.50;9.50;;;;;3.50;74.65;99748.34;6274091;20;2774235;-47
2024/03/19 04:22:39;;;;;;;;;11.00;10.00;;;;;3.51;75.06;99758.94;6271325;20;2779472;-46
2024/03/19 04:25:10;;;;;;;;;14.50;8.00;;;;;3.44;75.98;99760.03;6272298;20;2773348;-48
2024/03/19 04:27:37;;;;;;;;;10.75;10.75;;;;;3.33;76.76;99761.28;6292041;20;1823296;-46
2024/03/19 04:30:06;;;;;;;;;13.00;13.00;;;;;3.46;77.15;99765.28;6301315;20;3513882;-45
2024/03/19 04:32:33;;;;;;;;;19.67;14.67;;;;;3.35;78.04;99759.47;6302005;20;2809719;-46
2024/03/19 04:35:02;;;;;;;;;14.40;12.60;;;;;3.21;80.49;99760.75;6325997;20;2786796;-47
2024/03/19 04:37:29;;;;;;;;;15.33;14.67;;;;;3.46;78.03;99757.34;6269075;20;2809799;-47
2024/03/19 04:39:56;;;;;;;;;13.00;13.00;;;;;3.32;79.13;99763.09;6303214;20;2790295;-50
2024/03/19 04:42:24;;;;;;;;;25.67;15.67;;;;;3.28;79.49;99764.94;6271128;20;3555595;-49
2024/03/19 04:44:51;;;;;;;;;36.00;29.00;;;;;3.32;79.86;99767.50;6302288;20;2850351;-46
2024/03/19 04:47:19;;;;;;;;;47.50;39.50;;;;;3.19;80.25;99775.84;6277506;20;2879964;-48
2024/03/19 04:49:47;;;;;;;;;63.67;45.00;;;;;3.37;78.45;99773.53;6275339;20;2878416;-47
2024/03/19 04:52:15;;;;;;;;;24.00;20.67;;;;;3.36;78.77;99771.81;6306045;20;3557552;-47
2024/03/19 04:54:45;;;;;;;;;14.86;11.43;;;;;3.12;79.88;99779.59;6301909;20;1823231;-47
2024/03/19 04:57:12;;;;;;;;;17.00;13.00;;;;;3.32;79.19;99780.75;6307753;20;2797169;-49
2024/03/19 04:59:39;;;;;;;;;19.00;19.00;;;;;3.18;78.89;99790.00;6278393;20;2820117;-45
2024/03/19 05:02:05;;;;;;;;;28.00;22.50;;;;;3.16;78.63;99786.56;6265752;20;2496149;-47
2024/03/19 05:04:34;;;;;;;;;34.50;29.50;;;;;3.16;79.91;99789.22;6273456;20;2857662;-46
2024/03/19 05:07:01;;;;;;;;;25.50;18.00;;;;;3.18;78.77;99787.34;6276811;20;2834722;-48
2024/03/19 05:09:28;;;;;;;;;29.00;26.00;;;;;3.04;77.75;99792.22;6274783;20;2500303;-50
2024/03/19 05:11:54;;;;;;;;;28.00;23.50;;;;;3.37;76.99;99793.00;6272322;20;2500313;-47
2024/03/19 05:14:22;;;;;;;;;27.67;19.00;;;;;3.35;76.48;99791.31;6272355;20;3578397;-44
2024/03/19 05:16:49;;;;;;;;;23.33;16.33;;;;;3.22;77.81;99796.97;6276020;20;3557572;-46
2024/03/19 05:19:17;;;;;;;;;23.00;20.67;;;;;3.36;77.61;99801.84;6305416;20;3557542;-47
2024/03/19 05:21:44;;;;;;;;;24.33;13.33;;;;;3.52;77.44;99805.78;6306618;20;3543981;-46
2024/03/19 05:24:12;;;;;;;;;29.33;20.67;;;;;3.41;78.47;99796.41;6306722;20;3578400;-45
2024/03/19 05:26:39;;;;;;;;;19.67;18.67;;;;;3.42;77.89;99799.03;6275896;20;3559664;-44
2024/03/19 05:29:06;;;;;;;;;14.00;13.00;;;;;3.27;79.16;99800.34;6277421;20;2803413;-47
2024/03/19 05:31:34;;;;;;;;;16.80;13.20;;;;;3.25;79.92;99811.94;6299978;20;2805505;-49
2024/03/19 05:34:02;;;;;;;;;9.00;7.25;;;;;3.44;78.23;99812.25;6296942;20;1824394;-49
2024/03/19 05:36:29;;;;;;;;;17.50;12.50;;;;;3.30;78.03;99808.22;6306672;20;2790882;-47
2024/03/19 05:38:57;;;;;;;;;15.40;13.80;;;;;3.70;76.35;99814.97;6300631;20;2815261;-45
2024/03/19 05:41:24;;;;;;;;;18.50;13.00;;;;;3.78;76.50;99819.16;6276469;20;2794040;-49
2024/03/19 05:43:50;;;;;;;;;14.50;13.50;;;;;3.64;76.05;99820.47;6275406;20;2788844;-49
2024/03/19 05:46:18;;;;;;;;;19.67;15.00;;;;;3.60;76.57;99821.47;6276309;20;3567058;-47
2024/03/19 05:48:45;;;;;;;;;20.00;16.00;;;;;3.70;76.30;99820.28;6276002;20;2832566;-47
2024/03/19 05:51:12;;;;;;;;;18.00;16.67;;;;;3.66;77.06;99826.59;6276650;20;3562780;-45
2024/03/19 05:53:40;;;;;;;;;18.00;15.33;;;;;3.68;76.42;99832.72;6276052;20;3554444;-51
2024/03/19 05:56:08;;;;;;;;;19.67;18.33;;;;;3.88;75.46;99832.09;6305732;20;3571078;-51
2024/03/19 05:58:35;;;;;;;;;18.00;13.50;;;;;3.61;77.84;99831.19;6311466;20;2800246;-50
2024/03/19 06:01:03;;;;;;;;;20.50;14.00;;;;;4.02;76.92;99833.44;6271902;20;2813855;-52
2024/03/19 06:03:33;;;;;;;;;19.00;15.67;;;;;3.84;78.05;99842.88;6275398;20;3550270;-51
2024/03/19 06:06:08;;;;;;;;;15.00;13.00;;;;;4.00;77.97;99838.78;6305546;20;2791980;-50
2024/03/19 06:08:38;;;;;;;;;13.67;13.67;;;;;4.05;77.47;99839.50;6276326;20;3538914;-48
2024/03/19 06:11:07;;;;;;;;;15.00;11.00;;;;;4.26;75.98;99845.91;6307323;20;2794002;-52
2024/03/19 06:13:35;;;;;;;;;18.67;15.00;;;;;4.10;76.75;99848.22;6277173;20;3552345;-50
2024/03/19 06:16:02;;;;;;;;;20.00;15.00;;;;;4.23;75.43;99848.69;6293508;20;2830526;-49
2024/03/19 06:18:33;;;;;;;;;20.17;16.00;;;;;4.27;74.95;99857.44;6299882;20;2828610;-50
2024/03/19 06:21:00;;;;;;;;;21.00;16.67;;;;;4.38;75.71;99865.91;6303616;20;3567998;-50
2024/03/19 06:23:27;;;;;;;;;16.00;11.00;;;;;4.10;75.62;99852.66;6307457;20;2795244;-48
2024/03/19 06:25:54;;;;;;;;;15.67;14.00;;;;;4.38;74.03;99872.09;6275308;20;3534610;-48
2024/03/19 06:28:22;;;;;;;;;16.00;14.33;;;;;4.44;73.93;99870.16;6306690;20;2795380;-46
2024/03/19 06:30:55;;;;;;;;;15.00;12.33;;;;;4.55;71.87;99866.19;6303854;20;2791035;-45
2024/03/19 06:33:22;;;;;;;;;13.00;11.00;;;;;4.39;70.82;99872.97;6304727;20;2781563;-47
2024/03/19 06:35:52;;;;;;;;;15.50;12.00;;;;;4.44;70.86;99873.69;6272478;20;2800285;-48
2024/03/19 06:38:21;;;;;;;;;19.00;14.00;;;;;4.31;72.77;99877.66;6297931;20;2819158;-47
2024/03/19 06:40:49;;;;;;;;;16.00;14.60;;;;;4.47;72.46;99880.69;6301526;20;2814935;-47
2024/03/19 06:43:16;;;;;;;;;22.00;19.67;;;;;4.56;70.98;99880.38;6273468;20;3585678;-46
2024/03/19 06:45:43;;;;;;;;;16.50;16.50;;;;;4.67;71.23;99878.22;6304873;20;2829453;-47
2024/03/19 06:48:11;;;;;;;;;25.67;19.67;;;;;4.73;71.46;99877.13;6274266;20;3567994;-47
2024/03/19 06:50:37;;;;;;;;;28.00;20.00;;;;;4.81;71.57;99880.41;6302643;20;2842994;-48
2024/03/19 06:53:05;;;;;;;;;20.33;15.00;;;;;4.79;70.96;99888.44;6274553;20;3549216;-46
2024/03/19 06:55:32;;;;;;;;;16.00;16.00;;;;;4.73;69.62;99887.78;6302017;20;2483809;-46
2024/03/19 06:57:59;;;;;;;;;20.50;17.00;;;;;4.62;70.04;99891.66;6277653;20;2826337;-46
2024/03/19 07:00:26;;;;;;;;;25.00;17.50;;;;;5.00;69.57;99886.81;6276599;20;2845225;-46
2024/03/19 07:02:54;;;;;;;;;16.50;15.50;;;;;4.98;67.96;99894.00;6277199;20;2827394;-48
2024/03/19 07:05:22;;;;;;;;;27.00;21.50;;;;;4.88;68.13;99891.72;6272778;20;2844227;-45
2024/03/19 07:07:52;;;;;;;;;25.00;22.00;;;;;4.87;68.16;99893.50;6270898;20;2500319;-48
2024/03/19 07:10:20;;;;;;;;;19.50;11.00;;;;;4.78;66.55;99892.00;6272696;20;2822139;-45
2024/03/19 07:12:47;;;;;;;;;17.67;16.33;;;;;5.04;66.59;99903.53;6273906;20;3552349;-46
2024/03/19 07:15:15;;;;;;;;;14.67;11.33;;;;;4.93;66.16;99895.94;6303805;20;2788934;-46
2024/03/19 07:17:42;;;;;;;;;15.50;13.00;;;;;5.20;65.30;99906.53;6312079;20;2793046;-45
2024/03/19 07:20:12;;;;;;;;;13.80;12.40;;;;;5.27;64.42;99900.06;6300395;20;2795145;-47
2024/03/19 07:22:42;;;;;;;;;10.00;9.00;;;;;5.35;63.51;99905.97;6278538;20;2756544;-47
2024/03/19 07:25:10;;;;;;;;;7.00;3.00;;;;;5.11;62.06;99906.84;6293126;20;1813917;-47
2024/03/19 07:27:42;;;;;;;;;12.00;11.00;;;;;5.33;61.65;99910.47;6307605;20;2787788;-47
2024/03/19 07:30:14;;;;;;;;;19.00;15.33;;;;;5.35;61.29;99905.09;6275073;20;3548330;-45
2024/03/19 07:32:41;;;;;;;;;16.00;12.00;;;;;5.23;61.08;99909.94;6305584;20;2817012;-46
2024/03/19 07:35:10;;;;;;;;;20.33;16.67;;;;;5.43;61.29;99911.88;6274348;20;3558579;-46
2024/03/19 07:37:39;;;;;;;;;14.20;12.60;;;;;5.57;60.57;99918.47;6299594;20;2789869;-45
2024/03/19 07:40:13;;;;;;;;;26.50;17.50;;;;;5.71;59.90;99921.47;6278573;20;2834677;-46
2024/03/19 07:42:40;;;;;;;;;18.00;18.00;;;;;5.70;60.14;99930.41;6276906;20;2825398;-47
2024/03/19 07:45:08;;;;;;;;;14.00;13.00;;;;;5.40;60.68;99922.66;6273815;20;2788819;-46
2024/03/19 07:47:36;;;;;;;;;17.33;15.33;;;;;5.69;59.73;99929.56;6275146;20;3561625;-49
2024/03/19 07:50:07;;;;;;;;;17.00;13.67;;;;;5.80;59.91;99928.28;6305805;20;3534683;-47
2024/03/19 07:52:35;;;;;;;;;12.50;12.50;;;;;5.90;58.98;99935.88;6306171;20;2794052;-47
2024/03/19 07:55:04;;;;;;;;;12.00;12.00;;;;;6.06;58.54;99937.97;6298090;20;2789877;-46
2024/03/19 07:57:32;;;;;;;;;15.33;14.00;;;;;6.25;57.39;99932.78;6275102;20;3541984;-49
2024/03/19 08:00:09;;;;;;;;;23.33;19.00;;;;;5.78;58.27;99938.13;6302827;20;3570095;-48
2024/03/19 08:02:39;;;;;;;;;14.50;13.50;;;;;6.24;58.18;99942.59;6275340;20;2799252;-48
2024/03/19 08:05:08;;;;;;;;;17.67;16.33;;;;;6.38;57.77;99937.56;6273506;20;3553504;-46
2024/03/19 08:07:45;;;;;;;;;21.00;19.00;;;;;6.34;57.32;99941.25;6305642;20;3550241;-49
2024/03/19 08:10:12;;;;;;;;;18.00;10.50;;;;;6.54;56.23;99944.94;6305197;20;2799306;-46
2024/03/19 08:12:39;;;;;;;;;11.00;11.00;;;;;6.23;55.66;99945.28;6281502;20;2597131;-45
2024/03/19 08:15:09;;;;;;;;;15.00;13.80;;;;;6.14;58.06;99947.41;6326847;20;2795156;-45
2024/03/19 08:17:35;;;;;;;;;13.00;10.00;;;;;6.20;55.92;99951.63;6273876;20;2782629;-46
2024/03/19 08:20:06;;;;;;;;;16.00;14.00;;;;;6.54;55.33;99944.94;6280179;20;2500404;-49
2024/03/19 08:22:34;;;;;;;;;11.60;9.80;;;;;6.49;54.41;99957.59;6335040;20;2780496;-50
2024/03/19 08:25:04;;;;;;;;;38.00;33.00;;;;;6.66;54.23;99952.44;6277739;20;2862826;-46
2024/03/19 08:27:31;;;;;;;;;27.00;23.00;;;;;6.96;54.99;99954.75;6278295;20;2500338;-47
2024/03/19 08:30:01;;;;;;;;;73.33;54.33;;;;;6.86;54.43;99956.94;6278070;20;3645123;-46
2024/03/19 08:32:30;;;;;;;;;67.67;52.00;;;;;6.65;53.48;99957.84;6273219;20;3633624;-47
2024/03/19 08:34:57;;;;;;;;;26.50;21.00;;;;;6.68;54.20;99958.56;6310264;20;2831512;-46
2024/03/19 08:37:26;;;;;;;;;14.00;12.67;;;;;6.84;53.04;99965.94;6277223;20;2798286;-49
2024/03/19 08:39:53;;;;;;;;;10.00;8.50;;;;;6.92;53.96;99962.00;6309754;20;2759748;-47
2024/03/19 08:42:21;;;;;;;;;11.80;10.40;;;;;7.01;51.53;99961.63;6308607;20;2786898;-46
2024/03/19 08:44:50;;;;;;;;;11.80;11.20;;;;;7.12;52.32;99968.31;6303614;20;2789990;-45
2024/03/19 08:47:17;;;;;;;;;11.00;9.00;;;;;6.99;52.37;99965.28;6279502;20;2780533;-45
2024/03/19 08:49:45;;;;;;;;;9.40;9.00;;;;;7.14;52.65;99977.13;6304377;20;2746556;-46
2024/03/19 08:52:13;;;;;;;;;27.00;21.00;;;;;7.61;51.06;99961.69;6309822;20;2846221;-48
2024/03/19 08:54:41;;;;;;;;;18.33;16.00;;;;;7.89;51.40;99968.44;6276823;20;3555519;-48
2024/03/19 08:57:11;;;;;;;;;9.25;9.00;;;;;7.50;50.77;99969.31;6297497;20;1805575;-45
2024/03/19 08:59:37;;;;;;;;;14.00;12.00;;;;;7.75;50.17;99977.09;6305770;20;2791944;-46
2024/03/19 09:02:05;;;;;;;;;32.50;28.50;;;;;7.86;49.91;99980.13;6278699;20;2861639;-49
2024/03/19 09:04:37;;;;;;;;;12.00;10.50;;;;;7.44;49.55;99980.25;6276711;20;2788941;-46
2024/03/19 09:07:04;;;;;;;;;16.50;11.50;;;;;7.44;50.49;99974.91;6280140;20;2800273;-45
2024/03/19 09:09:32;;;;;;;;;16.67;12.00;;;;;7.77;51.29;99971.69;6277516;20;2795229;-47
2024/03/19 09:11:58;;;;;;;;;9.00;7.00;;;;;7.04;52.18;99977.50;6314660;20;2731537;-49
2024/03/19 09:14:25;;;;;;;;;9.00;9.00;;;;;7.54;48.71;99981.59;6310082;20;2736749;-47
2024/03/19 09:16:51;;;;;;;;;11.00;10.50;;;;;7.98;48.32;99973.38;6279464;20;2789904;-46
2024/03/19 09:19:18;;;;;;;;;13.00;11.00;;;;;8.16;49.47;99978.78;6277938;20;2789959;-47
2024/03/19 09:21:46;;;;;;;;;9.25;7.75;;;;;7.91;48.00;99979.94;6305638;20;2620083;-50
2024/03/19 09:24:13;;;;;;;;;9.00;7.50;;;;;8.05;46.60;99977.47;6311448;20;2748286;-49
2024/03/19 09:26:39;;;;;;;;;10.50;7.00;;;;;7.63;48.35;99973.16;6311146;20;2763859;-47
2024/03/19 09:29:07;;;;;;;;;8.00;7.75;;;;;8.26;47.04;99972.06;6297268;20;1814006;-47
2024/03/19 09:31:33;;;;;;;;;9.00;7.50;;;;;7.35;47.34;99976.22;6308254;20;2753445;-46
2024/03/19 09:34:02;;;;;;;;;13.80;10.20;;;;;7.59;46.77;99979.59;6302939;20;2789983;-47
2024/03/19 09:36:29;;;;;;;;;18.33;17.33;;;;;9.33;45.19;99984.66;6279166;20;3564825;-48
2024/03/19 09:38:57;;;;;;;;;12.50;10.00;;;;;7.69;47.46;99985.41;6307918;20;2791007;-46
2024/03/19 09:41:25;;;;;;;;;17.00;17.00;;;;;7.81;46.09;99990.19;6307550;20;2824267;-45
2024/03/19 09:43:56;;;;;;;;;18.00;15.67;;;;;8.23;46.28;99990.94;6301050;20;2827394;-46
2024/03/19 09:46:25;;;;;;;;;30.00;29.33;;;;;8.99;45.02;99991.75;6307262;20;2862946;-46
2024/03/19 09:48:54;;;;;;;;;128.33;105.33;;;;;7.66;45.90;99988.19;6308350;20;3728409;-46
2024/03/19 09:51:24;;;;;;;;;96.00;75.33;;;;;9.15;44.63;99981.97;6274569;20;3686840;-45
2024/03/19 09:53:51;;;;;;;;;33.50;27.00;;;;;9.41;43.81;99988.69;6274978;20;2850356;-46
2024/03/19 09:56:21;;;;;;;;;11.00;10.25;;;;;9.33;44.26;99976.63;6301995;20;2819026;-45
2024/03/19 09:58:51;;;;;;;;;125.00;115.00;;;;;9.49;44.71;99982.91;6303838;20;1974334;-46
2024/03/19 10:01:20;;;;;;;;;251.75;233.50;;;;;9.63;44.94;99984.88;6273472;20;3734753;-45
2024/03/19 10:03:49;;;;;;;;;6.50;6.50;;;;;8.60;43.39;99989.22;6276603;20;2746298;-44
2024/03/19 10:06:17;;;;;;;;;26.67;23.00;;;;;8.89;43.85;99988.66;6276266;20;3582568;-45
2024/03/19 10:08:46;;;;;;;;;44.67;38.67;;;;;8.54;45.53;99985.91;6307206;20;2854460;-46
2024/03/19 10:11:14;;;;;;;;;13.40;13.40;;;;;8.70;43.91;99990.50;6333254;20;2793998;-47
2024/03/19 10:13:42;;;;;;;;;16.00;13.50;;;;;8.63;44.12;99995.28;6277487;20;2500288;-45
2024/03/19 10:16:12;;;;;;;;;47.67;40.00;;;;;9.61;43.28;99986.75;6277818;20;2862961;-44
2024/03/19 10:18:39;;;;;;;;;5.25;5.25;;;;;9.47;43.13;99990.16;6328221;20;1825262;-46
2024/03/19 10:21:07;;;;;;;;;10.50;6.00;;;;;9.38;41.54;99993.34;6308934;20;2769627;-45
2024/03/19 10:23:36;;;;;;;;;7.20;7.20;;;;;9.57;41.27;99987.88;6304421;20;2746113;-46
2024/03/19 10:26:05;;;;;;;;;233.50;209.75;;;;;9.39;42.84;99990.56;6306617;20;4504451;-46
2024/03/19 10:28:32;;;;;;;;;15.00;14.00;;;;;9.91;42.12;99991.44;6276612;20;3511862;-45
2024/03/19 10:30:59;;;;;;;;;9.00;6.00;;;;;10.09;41.68;99990.44;6310908;20;2733656;-45
2024/03/19 10:33:29;;;;;;;;;48.00;40.00;;;;;9.01;43.15;99990.72;6276702;20;2848992;-47
2024/03/19 10:35:58;;;;;;;;;15.00;15.00;;;;;9.00;42.60;99990.78;6279954;20;2814932;-46
2024/03/19 10:38:26;;;;;;;;;13.50;12.00;;;;;8.14;44.36;99990.44;6279949;20;2794075;-48
2024/03/19 10:40:59;;;;;;;;;12.60;8.00;;;;;7.17;45.72;99983.19;6302186;20;2766992;-47
2024/03/19 10:43:27;;;;;;;;;22.00;21.50;;;;;8.46;44.52;99973.84;6304943;20;2838812;-45
2024/03/19 10:45:56;;;;;;;;;21.00;20.00;;;;;8.81;44.13;99980.13;6276756;20;2836707;-46
2024/03/19 10:48:26;;;;;;;;;21.33;20.33;;;;;9.32;42.21;99978.44;6300509;20;2842031;-46
2024/03/19 10:50:55;;;;;;;;;13.20;11.80;;;;;8.44;43.34;99984.59;6299059;20;2786754;-46
2024/03/19 10:53:28;;;;;;;;;11.67;9.00;;;;;9.19;43.31;99972.84;6275649;20;2764902;-45
2024/03/19 10:56:01;;;;;;;;;11.00;7.50;;;;;9.67;42.28;99978.41;6309238;20;2764861;-46
2024/03/19 10:58:28;;;;;;;;;11.00;10.00;;;;;9.60;41.48;99980.53;6276264;20;2782581;-45
2024/03/19 11:01:02;;;;;;;;;31.67;27.00;;;;;9.45;41.58;99982.22;6277406;20;2853635;-45
2024/03/19 11:03:29;;;;;;;;;9.00;7.00;;;;;10.01;40.84;99979.28;6314070;20;2637823;-48
2024/03/19 11:05:56;;;;;;;;;7.00;6.00;;;;;10.49;39.90;99982.91;6308817;20;2731938;-45
2024/03/19 11:08:25;;;;;;;;;8.50;8.50;;;;;10.27;39.42;99994.84;6276720;20;2744068;-47
2024/03/19 11:10:51;;;;;;;;;20.00;18.50;;;;;9.61;40.53;99981.41;6274389;20;2500437;-46
2024/03/19 11:13:21;;;;;;;;;19.00;18.00;;;;;9.87;41.09;99983.56;6277368;20;2834752;-49
2024/03/19 11:15:49;;;;;;;;;7.00;7.00;;;;;9.43;41.27;99983.25;6273856;20;2744035;-46